createdAt,value
2018-11-10T00:01:32.742Z,5.30
2018-11-10T00:04:01.594Z,6.53
2018-11-10T00:06:30.423Z,4.13
2018-11-10T00:09:05.488Z,2.20
2018-11-10T00:11:36.213Z,3.50
2018-11-10T00:14:05.160Z,3.27
2018-11-10T00:16:34.547Z,2.97
2018-11-10T00:19:06.655Z,2.50
2018-11-10T00:21:36.175Z,3.80
2018-11-10T00:24:05.838Z,21.80
2018-11-10T00:26:35.068Z,7.90
2018-11-10T00:29:04.634Z,9.57
2018-11-10T00:31:33.931Z,5.13
2018-11-10T00:34:02.631Z,3.70
2018-11-10T00:36:32.507Z,4.60
2018-11-10T00:39:01.534Z,4.27
2018-11-10T00:41:30.756Z,5.00
2018-11-10T00:44:01.593Z,3.93
2018-11-10T00:46:31.598Z,6.30
2018-11-10T00:49:00.606Z,4.80
2018-11-10T00:51:30.197Z,3.63
2018-11-10T00:54:00.863Z,5.37
2018-11-10T00:56:30.906Z,5.53
2018-11-10T00:58:59.731Z,3.83
2018-11-10T01:01:29.316Z,2.87
2018-11-10T01:03:59.177Z,5.10
2018-11-10T01:06:30.483Z,5.30
2018-11-10T01:08:59.398Z,4.10
2018-11-10T01:11:28.476Z,2.40
2018-11-10T01:13:58.339Z,3.03
2018-11-10T01:16:27.326Z,3.87
2018-11-10T01:18:56.360Z,5.73
2018-11-10T01:21:25.534Z,6.00
2018-11-10T01:23:59.939Z,3.30
2018-11-10T01:26:29.426Z,3.43
2018-11-10T01:29:03.326Z,5.87
2018-11-10T01:31:33.978Z,6.03
2018-11-10T01:34:03.274Z,3.00
2018-11-10T01:36:34.910Z,5.60
2018-11-10T01:39:03.783Z,7.40
2018-11-10T01:41:31.623Z,3.90
2018-11-10T01:43:59.235Z,5.13
2018-11-10T01:46:28.587Z,2.83
2018-11-10T01:48:58.095Z,3.20
2018-11-10T01:51:26.448Z,3.20
2018-11-10T01:53:54.703Z,3.37
2018-11-10T01:56:22.438Z,6.73
2018-11-10T01:58:50.146Z,7.07
2018-11-10T02:01:18.166Z,3.07
2018-11-10T02:03:52.321Z,2.87
2018-11-10T02:06:24.921Z,4.27
2018-11-10T02:09:02.770Z,4.20
2018-11-10T02:11:32.532Z,4.23
2018-11-10T02:14:01.601Z,4.90
2018-11-10T02:16:31.004Z,4.77
2018-11-10T02:19:00.948Z,3.50
2018-11-10T02:21:30.500Z,2.40
2018-11-10T02:24:03.432Z,3.37
2018-11-10T02:26:34.585Z,2.50
2018-11-10T02:29:07.201Z,5.30
2018-11-10T02:31:37.924Z,3.53
2018-11-10T02:34:07.741Z,3.23
2018-11-10T02:36:38.950Z,3.67
2018-11-10T02:39:07.077Z,5.73
2018-11-10T02:41:38.515Z,3.90
2018-11-10T02:44:12.658Z,2.50
2018-11-10T02:46:49.678Z,2.80
2018-11-10T02:49:22.482Z,2.83
2018-11-10T02:51:54.061Z,2.50
2018-11-10T02:54:24.130Z,2.37
2018-11-10T02:56:53.195Z,2.73
2018-11-10T02:59:23.563Z,2.63
2018-11-10T03:01:52.662Z,2.67
2018-11-10T03:04:22.198Z,2.07
2018-11-10T03:06:51.488Z,4.43
2018-11-10T03:09:21.270Z,2.00
2018-11-10T03:11:50.681Z,6.60
2018-11-10T03:14:21.861Z,3.83
2018-11-10T03:16:51.925Z,2.00
2018-11-10T03:19:20.681Z,3.30
2018-11-10T03:21:50.468Z,4.13
2018-11-10T03:24:19.964Z,3.00
2018-11-10T03:26:50.912Z,2.07
2018-11-10T03:29:19.519Z,2.90
2018-11-10T03:31:50.293Z,2.50
2018-11-10T03:34:20.728Z,3.30
2018-11-10T03:36:50.768Z,3.50
2018-11-10T03:39:23.497Z,2.53
2018-11-10T03:41:52.856Z,3.90
2018-11-10T03:44:22.980Z,1.80
2018-11-10T03:46:53.221Z,2.97
2018-11-10T03:49:22.860Z,1.93
2018-11-10T03:51:54.637Z,2.27
2018-11-10T03:54:25.660Z,3.77
2018-11-10T03:56:55.119Z,2.00
2018-11-10T03:59:23.802Z,1.87
2018-11-10T04:01:52.871Z,1.90
2018-11-10T04:04:22.305Z,4.00
2018-11-10T04:06:51.366Z,2.83
2018-11-10T04:09:21.561Z,3.20
2018-11-10T04:11:51.654Z,2.13
2018-11-10T04:14:20.952Z,2.47
2018-11-10T04:16:50.463Z,1.87
2018-11-10T04:19:20.566Z,2.63
2018-11-10T04:21:56.107Z,2.67
2018-11-10T04:24:25.337Z,2.30
2018-11-10T04:26:54.296Z,2.30
2018-11-10T04:29:24.688Z,3.20
2018-11-10T04:31:54.358Z,4.50
2018-11-10T04:34:22.550Z,3.33
2018-11-10T04:36:51.417Z,2.17
2018-11-10T04:39:21.789Z,2.83
2018-11-10T04:41:51.239Z,3.70
2018-11-10T04:44:20.078Z,2.83
2018-11-10T04:46:48.817Z,4.17
2018-11-10T04:49:16.622Z,6.40
2018-11-10T04:51:45.449Z,3.20
2018-11-10T04:54:12.922Z,5.23
2018-11-10T04:56:42.999Z,4.70
2018-11-10T04:59:11.920Z,4.27
2018-11-10T05:01:40.326Z,3.93
2018-11-10T05:04:09.173Z,3.93
2018-11-10T05:06:38.361Z,3.60
2018-11-10T05:09:08.729Z,3.50
2018-11-10T05:11:38.577Z,3.50
2018-11-10T05:14:07.783Z,6.30
2018-11-10T05:16:37.140Z,7.03
2018-11-10T05:19:07.156Z,5.73
2018-11-10T05:21:35.866Z,5.50
2018-11-10T05:24:04.773Z,3.30
2018-11-10T05:26:34.588Z,4.77
2018-11-10T05:29:04.429Z,4.33
2018-11-10T05:31:34.235Z,6.70
2018-11-10T05:34:07.219Z,3.67
2018-11-10T05:36:37.108Z,4.80
2018-11-10T05:39:07.291Z,5.17
2018-11-10T05:41:36.921Z,4.83
2018-11-10T05:44:06.462Z,3.67
2018-11-10T05:46:34.713Z,5.30
2018-11-10T05:49:02.539Z,3.57
2018-11-10T05:51:30.451Z,4.57
2018-11-10T05:56:30.356Z,6.43
2018-11-10T05:58:36.286Z,3.30
2018-11-10T06:00:41.766Z,3.80
2018-11-10T06:02:47.490Z,4.80
2018-11-10T06:04:53.698Z,4.70
2018-11-10T06:06:59.904Z,6.20
2018-11-10T06:09:05.775Z,5.40
2018-11-10T06:11:13.046Z,5.00
2018-11-10T06:13:18.644Z,4.63
2018-11-10T06:15:24.424Z,2.87
2018-11-10T06:17:31.105Z,3.17
2018-11-10T06:19:37.246Z,3.53
2018-11-10T06:21:43.352Z,3.80
2018-11-10T06:23:49.116Z,4.80
2018-11-10T06:25:54.558Z,4.40
2018-11-10T06:27:59.910Z,4.90
2018-11-10T06:30:05.661Z,4.43
2018-11-10T06:32:11.639Z,5.43
2018-11-10T06:34:17.546Z,4.00
2018-11-10T06:36:23.435Z,4.67
2018-11-10T06:38:29.121Z,3.87
2018-11-10T06:40:34.585Z,2.87
2018-11-10T06:42:40.259Z,6.03
2018-11-10T06:44:46.302Z,2.70
2018-11-10T06:46:51.953Z,6.10
2018-11-10T06:48:57.933Z,3.13
2018-11-10T06:51:03.757Z,2.50
2018-11-10T06:53:09.913Z,4.30
2018-11-10T06:55:15.671Z,5.40
2018-11-10T06:57:21.667Z,3.97
2018-11-10T06:59:27.634Z,3.57
2018-11-10T07:01:33.638Z,4.53
2018-11-10T07:03:39.019Z,4.23
2018-11-10T07:05:44.615Z,3.47
2018-11-10T07:07:50.193Z,4.33
2018-11-10T07:09:55.717Z,4.20
2018-11-10T07:12:01.403Z,3.10
2018-11-10T07:14:07.444Z,7.13
2018-11-10T07:16:13.303Z,4.40
2018-11-10T07:18:19.227Z,3.47
2018-11-10T07:20:24.957Z,5.23
2018-11-10T07:22:30.522Z,4.20
2018-11-10T07:24:35.930Z,3.10
2018-11-10T07:26:41.827Z,4.27
2018-11-10T07:28:46.978Z,3.90
2018-11-10T07:30:52.404Z,3.83
2018-11-10T07:32:58.040Z,5.53
2018-11-10T07:35:03.884Z,4.17
2018-11-10T07:37:09.835Z,4.67
2018-11-10T07:39:16.012Z,3.53
2018-11-10T07:41:21.639Z,3.43
2018-11-10T07:43:27.121Z,4.97
2018-11-10T07:45:34.638Z,3.90
2018-11-10T07:47:40.630Z,4.00
2018-11-10T07:49:46.394Z,3.20
2018-11-10T07:51:52.895Z,3.43
2018-11-10T07:53:58.447Z,5.43
2018-11-10T07:56:04.284Z,5.83
2018-11-10T07:58:10.113Z,3.50
2018-11-10T08:00:19.961Z,4.33
2018-11-10T08:02:25.760Z,3.20
2018-11-10T08:04:31.820Z,3.10
2018-11-10T08:06:37.433Z,7.20
2018-11-10T08:08:43.344Z,2.60
2018-11-10T08:10:49.196Z,3.30
2018-11-10T08:12:54.800Z,3.20
2018-11-10T08:15:00.258Z,3.80
2018-11-10T08:17:06.263Z,4.17
2018-11-10T08:19:12.270Z,2.37
2018-11-10T08:21:18.138Z,3.70
2018-11-10T08:23:23.880Z,2.80
2018-11-10T08:25:29.784Z,3.00
2018-11-10T08:27:35.481Z,3.80
2018-11-10T08:29:41.402Z,2.40
2018-11-10T08:31:47.289Z,5.40
2018-11-10T08:33:54.548Z,3.10
2018-11-10T08:36:00.049Z,2.93
2018-11-10T08:38:06.263Z,5.63
2018-11-10T08:40:12.687Z,3.53
2018-11-10T08:42:18.159Z,3.67
2018-11-10T08:44:24.140Z,3.80
2018-11-10T08:46:29.892Z,3.50
2018-11-10T08:48:35.407Z,3.50
2018-11-10T08:50:41.019Z,3.60
2018-11-10T08:52:47.044Z,2.93
2018-11-10T08:54:53.119Z,3.93
2018-11-10T08:56:59.411Z,3.67
2018-11-10T08:59:05.942Z,2.40
2018-11-10T09:01:12.839Z,2.63
2018-11-10T09:03:18.563Z,5.30
2018-11-10T09:05:24.873Z,3.50
2018-11-10T09:07:30.780Z,5.90
2018-11-10T09:09:37.145Z,2.87
2018-11-10T09:11:43.072Z,3.13
2018-11-10T09:13:48.863Z,2.97
2018-11-10T09:15:54.506Z,3.70
2018-11-10T09:18:00.564Z,2.57
2018-11-10T09:20:07.125Z,2.30
2018-11-10T09:22:13.800Z,3.10
2018-11-10T09:24:19.531Z,2.07
2018-11-10T09:26:25.401Z,3.23
2018-11-10T09:28:31.732Z,3.20
2018-11-10T09:30:37.557Z,3.30
2018-11-10T09:32:43.921Z,4.33
2018-11-10T09:34:50.056Z,2.77
2018-11-10T09:36:55.828Z,3.10
2018-11-10T09:39:01.466Z,3.30
2018-11-10T09:41:07.532Z,3.70
2018-11-10T09:43:13.281Z,2.40
2018-11-10T09:45:20.001Z,4.50
2018-11-10T09:47:25.991Z,5.27
2018-11-10T09:49:31.997Z,2.60
2018-11-10T09:51:38.263Z,3.23
2018-11-10T09:53:44.511Z,4.63
2018-11-10T09:55:50.363Z,3.20
2018-11-10T09:57:56.547Z,3.70
2018-11-10T10:00:02.903Z,3.13
2018-11-10T10:02:09.790Z,3.60
2018-11-10T10:04:15.535Z,4.83
2018-11-10T10:06:21.337Z,3.93
2018-11-10T10:08:27.430Z,5.37
2018-11-10T10:10:33.375Z,2.33
2018-11-10T10:12:39.257Z,3.93
2018-11-10T10:14:45.535Z,2.87
2018-11-10T10:16:51.171Z,4.87
2018-11-10T10:18:57.375Z,5.90
2018-11-10T10:21:03.665Z,5.73
2018-11-10T10:23:10.018Z,4.63
2018-11-10T10:25:16.775Z,5.77
2018-11-10T10:27:22.461Z,7.87
2018-11-10T10:29:29.277Z,5.13
2018-11-10T10:31:35.475Z,7.60
2018-11-10T10:33:41.574Z,4.40
2018-11-10T10:35:47.620Z,6.10
2018-11-10T10:37:53.752Z,6.57
2018-11-10T10:39:59.584Z,3.13
2018-11-10T10:42:05.737Z,5.37
2018-11-10T10:44:12.015Z,5.50
2018-11-10T10:46:17.902Z,4.73
2018-11-10T10:48:24.115Z,7.13
2018-11-10T10:50:30.170Z,5.33
2018-11-10T10:52:35.671Z,5.37
2018-11-10T10:54:41.339Z,4.93
2018-11-10T10:56:47.100Z,3.37
2018-11-10T10:58:52.906Z,8.63
2018-11-10T11:01:02.491Z,4.20
2018-11-10T11:03:12.586Z,5.90
2018-11-10T11:05:22.234Z,5.83
2018-11-10T11:07:30.620Z,6.43
2018-11-10T11:09:37.739Z,4.27
2018-11-10T11:11:44.254Z,3.70
2018-11-10T11:13:49.864Z,6.77
2018-11-10T11:15:56.616Z,7.20
2018-11-10T11:18:03.413Z,6.83
2018-11-10T11:20:09.076Z,4.33
2018-11-10T11:22:14.986Z,9.70
2018-11-10T11:24:21.016Z,7.10
2018-11-10T11:26:27.111Z,7.20
2018-11-10T11:28:32.897Z,5.80
2018-11-10T11:30:39.497Z,7.97
2018-11-10T11:32:45.774Z,4.23
2018-11-10T11:34:51.351Z,5.30
2018-11-10T11:36:56.905Z,4.87
2018-11-10T11:39:03.107Z,3.67
2018-11-10T11:41:09.020Z,7.63
2018-11-10T11:43:15.356Z,9.90
2018-11-10T11:45:21.593Z,32.47
2018-11-10T11:47:26.949Z,35.43
2018-11-10T11:49:32.740Z,33.37
2018-11-10T11:51:38.128Z,29.10
2018-11-10T11:53:43.555Z,32.33
2018-11-10T11:55:49.826Z,30.93
2018-11-10T11:57:55.778Z,31.30
2018-11-10T12:00:01.971Z,24.87
2018-11-10T12:02:07.441Z,24.53
2018-11-10T12:04:13.427Z,19.00
2018-11-10T12:06:19.569Z,22.83
2018-11-10T12:08:25.319Z,16.57
2018-11-10T12:10:31.800Z,16.27
2018-11-10T12:12:37.450Z,15.27
2018-11-10T12:14:43.778Z,12.00
2018-11-10T12:16:54.404Z,13.07
2018-11-10T12:19:00.884Z,18.10
2018-11-10T12:21:07.416Z,10.57
2018-11-10T12:23:13.825Z,6.80
2018-11-10T12:25:20.033Z,7.90
2018-11-10T12:27:26.248Z,7.20
2018-11-10T12:29:32.489Z,8.80
2018-11-10T12:31:38.104Z,5.50
2018-11-10T12:33:44.642Z,8.60
2018-11-10T12:35:51.467Z,8.30
2018-11-10T12:37:58.026Z,10.90
2018-11-10T12:40:04.169Z,8.83
2018-11-10T12:42:10.033Z,9.30
2018-11-10T12:44:15.651Z,8.50
2018-11-10T12:46:22.699Z,11.53
2018-11-10T12:48:28.778Z,7.10
2018-11-10T12:50:34.712Z,5.87
2018-11-10T12:52:40.591Z,5.80
2018-11-10T12:54:46.986Z,10.60
2018-11-10T12:56:53.059Z,4.07
2018-11-10T12:58:59.679Z,7.30
2018-11-10T13:01:05.974Z,6.33
2018-11-10T13:03:12.132Z,6.90
2018-11-10T13:05:18.035Z,3.63
2018-11-10T13:07:24.607Z,5.20
2018-11-10T13:09:31.136Z,6.30
2018-11-10T13:11:37.476Z,5.63
2018-11-10T13:13:43.170Z,5.20
2018-11-10T13:15:49.387Z,5.20
2018-11-10T13:17:54.904Z,3.57
2018-11-10T13:20:01.116Z,8.53
2018-11-10T13:22:07.279Z,5.17
2018-11-10T13:24:13.076Z,12.80
2018-11-10T13:26:18.659Z,17.37
2018-11-10T13:28:24.662Z,6.93
2018-11-10T13:30:30.264Z,8.90
2018-11-10T13:32:39.732Z,46.90
2018-11-10T13:34:46.315Z,96.57
2018-11-10T13:36:53.173Z,38.60
2018-11-10T13:38:59.831Z,55.93
2018-11-10T13:41:10.655Z,42.27
2018-11-10T13:43:17.057Z,43.57
2018-11-10T13:45:23.602Z,28.97
2018-11-10T13:47:30.095Z,30.37
2018-11-10T13:49:36.824Z,20.77
2018-11-10T13:51:43.543Z,12.23
2018-11-10T13:53:52.599Z,13.20
2018-11-10T13:55:58.661Z,15.37
2018-11-10T13:58:04.886Z,12.93
2018-11-10T14:00:11.405Z,12.70
2018-11-10T14:02:17.840Z,9.47
2018-11-10T14:04:26.071Z,11.27
2018-11-10T14:06:33.084Z,11.70
2018-11-10T14:08:41.645Z,6.00
2018-11-10T14:10:48.024Z,9.30
2018-11-10T14:12:55.030Z,6.97
2018-11-10T14:15:02.469Z,9.83
2018-11-10T14:17:08.657Z,12.97
2018-11-10T14:19:15.775Z,9.70
2018-11-10T14:21:22.242Z,6.13
2018-11-10T14:23:29.030Z,6.23
2018-11-10T14:25:35.130Z,5.40
2018-11-10T14:27:42.051Z,6.53
2018-11-10T14:29:48.781Z,6.93
2018-11-10T14:31:54.918Z,8.87
2018-11-10T14:34:01.532Z,11.30
2018-11-10T14:36:07.935Z,7.10
2018-11-10T14:38:16.957Z,9.67
2018-11-10T14:40:23.252Z,9.53
2018-11-10T14:42:30.200Z,10.17
2018-11-10T14:44:36.872Z,8.73
2018-11-10T14:46:43.415Z,6.73
2018-11-10T14:48:49.813Z,10.43
2018-11-10T14:50:55.500Z,7.60
2018-11-10T14:53:01.536Z,11.13
2018-11-10T14:55:07.364Z,14.03
2018-11-10T14:57:13.213Z,8.50
2018-11-10T14:59:19.207Z,9.57
2018-11-10T15:01:25.368Z,4.60
2018-11-10T15:03:31.826Z,6.47
2018-11-10T15:05:37.902Z,6.37
2018-11-10T15:07:44.560Z,9.20
2018-11-10T15:09:56.989Z,7.67
2018-11-10T15:12:02.891Z,5.30
2018-11-10T15:14:08.667Z,3.10
2018-11-10T15:16:14.894Z,6.00
2018-11-10T15:18:21.159Z,6.37
2018-11-10T15:20:29.588Z,4.30
2018-11-10T15:22:35.531Z,7.50
2018-11-10T15:24:41.488Z,4.23
2018-11-10T15:26:47.664Z,8.00
2018-11-10T15:28:53.380Z,7.10
2018-11-10T15:30:59.238Z,8.73
2018-11-10T15:33:05.873Z,6.17
2018-11-10T15:35:13.899Z,10.23
2018-11-10T15:37:22.459Z,10.30
2018-11-10T15:39:29.333Z,10.40
2018-11-10T15:41:40.038Z,9.43
2018-11-10T15:43:46.371Z,7.87
2018-11-10T15:45:52.796Z,13.17
2018-11-10T15:47:58.431Z,10.97
2018-11-10T15:50:04.368Z,10.50
2018-11-10T15:52:10.244Z,17.83
2018-11-10T15:54:19.442Z,5.77
2018-11-10T15:56:25.729Z,6.57
2018-11-10T15:58:33.113Z,5.30
2018-11-10T16:00:39.459Z,6.77
2018-11-10T16:02:44.933Z,3.83
2018-11-10T16:04:51.139Z,11.10
2018-11-10T16:06:58.287Z,8.10
2018-11-10T16:09:04.132Z,9.70
2018-11-10T16:11:10.494Z,5.40
2018-11-10T16:13:16.709Z,5.80
2018-11-10T16:15:22.804Z,8.50
2018-11-10T16:17:29.292Z,4.73
2018-11-10T16:19:35.336Z,7.70
2018-11-10T16:21:40.948Z,11.23
2018-11-10T16:23:46.411Z,15.90
2018-11-10T16:25:52.415Z,16.90
2018-11-10T16:27:58.609Z,11.40
2018-11-10T16:30:04.260Z,13.97
2018-11-10T16:32:09.996Z,12.50
2018-11-10T16:34:16.015Z,8.80
2018-11-10T16:36:23.076Z,8.70
2018-11-10T16:38:28.978Z,7.03
2018-11-10T16:40:34.838Z,9.10
2018-11-10T16:42:40.733Z,8.23
2018-11-10T16:44:46.819Z,7.63
2018-11-10T16:46:52.667Z,7.27
2018-11-10T16:48:59.339Z,9.33
2018-11-10T16:51:05.649Z,8.40
2018-11-10T16:53:12.222Z,9.37
2018-11-10T16:55:18.245Z,12.07
2018-11-10T16:57:24.710Z,4.80
2018-11-10T16:59:30.750Z,5.93
2018-11-10T17:01:36.400Z,18.63
2018-11-10T17:03:47.090Z,24.30
2018-11-10T17:05:53.857Z,18.60
2018-11-10T17:08:00.666Z,10.33
2018-11-10T17:10:07.185Z,7.80
2018-11-10T17:12:14.101Z,6.53
2018-11-10T17:14:20.290Z,5.90
2018-11-10T17:16:25.986Z,8.03
2018-11-10T17:18:33.143Z,6.30
2018-11-10T17:20:39.337Z,5.83
2018-11-10T17:22:45.397Z,6.20
2018-11-10T17:24:51.839Z,5.10
2018-11-10T17:26:58.035Z,8.93
2018-11-10T17:29:03.566Z,6.03
2018-11-10T17:31:11.745Z,6.37
2018-11-10T17:33:18.122Z,5.60
2018-11-10T17:35:24.299Z,4.33
2018-11-10T17:37:30.627Z,4.00
2018-11-10T17:39:36.612Z,4.90
2018-11-10T17:41:43.383Z,3.53
2018-11-10T17:43:49.659Z,4.80
2018-11-10T17:45:55.908Z,4.73
2018-11-10T17:48:02.485Z,6.03
2018-11-10T17:50:08.896Z,4.93
2018-11-10T17:52:15.245Z,8.30
2018-11-10T17:54:21.310Z,6.40
2018-11-10T17:56:27.954Z,7.40
2018-11-10T17:58:33.966Z,6.77
2018-11-10T18:00:40.249Z,5.60
2018-11-10T18:02:52.400Z,4.60
2018-11-10T18:05:00.042Z,5.10
2018-11-10T18:07:06.723Z,5.50
2018-11-10T18:09:14.239Z,11.50
2018-11-10T18:11:20.250Z,18.43
2018-11-10T18:13:25.979Z,10.23
2018-11-10T18:15:32.259Z,12.50
2018-11-10T18:17:39.773Z,7.63
2018-11-10T18:19:45.709Z,8.50
2018-11-10T18:21:51.767Z,4.07
2018-11-10T18:23:57.831Z,5.20
2018-11-10T18:26:03.726Z,4.70
2018-11-10T18:28:10.434Z,5.13
2018-11-10T18:30:17.164Z,7.93
2018-11-10T18:32:24.079Z,4.80
2018-11-10T18:34:30.425Z,8.23
2018-11-10T18:36:37.467Z,6.53
2018-11-10T18:38:45.515Z,6.50
2018-11-10T18:40:52.259Z,5.00
2018-11-10T18:42:58.494Z,6.03
2018-11-10T18:45:04.475Z,9.00
2018-11-10T18:47:11.205Z,21.63
2018-11-10T18:49:17.296Z,20.70
2018-11-10T18:51:23.137Z,19.20
2018-11-10T18:53:28.838Z,7.40
2018-11-10T18:55:37.059Z,15.93
2018-11-10T18:57:44.038Z,5.37
2018-11-10T18:59:50.246Z,7.20
2018-11-10T19:01:56.838Z,13.93
2018-11-10T19:04:03.799Z,13.63
2018-11-10T19:06:09.771Z,12.63
2018-11-10T19:08:17.686Z,7.10
2018-11-10T19:10:23.248Z,5.30
2018-11-10T19:12:29.863Z,5.23
2018-11-10T19:14:36.012Z,5.03
2018-11-10T19:16:41.997Z,6.07
2018-11-10T19:18:48.100Z,5.77
2018-11-10T19:20:54.209Z,10.53
2018-11-10T19:23:00.192Z,5.10
2018-11-10T19:25:06.457Z,24.43
2018-11-10T19:27:12.368Z,26.77
2018-11-10T19:29:17.676Z,17.43
2018-11-10T19:31:23.523Z,14.60
2018-11-10T19:33:29.849Z,9.33
2018-11-10T19:35:35.887Z,8.23
2018-11-10T19:37:42.266Z,7.70
2018-11-10T19:39:47.569Z,8.20
2018-11-10T19:41:53.466Z,4.33
2018-11-10T19:43:59.465Z,5.23
2018-11-10T19:46:05.793Z,4.30
2018-11-10T19:48:11.641Z,6.93
2018-11-10T19:50:17.760Z,5.80
2018-11-10T19:52:23.938Z,5.07
2018-11-10T19:54:30.460Z,6.17
2018-11-10T19:56:36.118Z,8.47
2018-11-10T19:58:41.660Z,6.27
2018-11-10T20:00:47.041Z,7.37
2018-11-10T20:02:55.466Z,6.03
2018-11-10T20:05:03.280Z,5.23
2018-11-10T20:07:09.481Z,8.50
2018-11-10T20:09:15.475Z,8.73
2018-11-10T20:11:21.033Z,8.57
2018-11-10T20:13:26.857Z,7.33
2018-11-10T20:15:33.252Z,8.43
2018-11-10T20:17:40.540Z,6.87
2018-11-10T20:19:46.039Z,6.90
2018-11-10T20:21:52.483Z,4.03
2018-11-10T20:23:58.605Z,5.93
2018-11-10T20:26:04.959Z,5.10
2018-11-10T20:28:10.807Z,4.60
2018-11-10T20:30:17.729Z,9.40
2018-11-10T20:32:23.856Z,7.47
2018-11-10T20:34:29.801Z,4.63
2018-11-10T20:36:35.578Z,12.43
2018-11-10T20:38:41.588Z,4.70
2018-11-10T20:40:47.566Z,7.70
2018-11-10T20:42:53.585Z,8.23
2018-11-10T20:44:59.455Z,7.60
2018-11-10T20:47:05.719Z,8.53
2018-11-10T20:49:11.545Z,5.40
2018-11-10T20:51:17.154Z,5.80
2018-11-10T20:53:22.948Z,5.23
2018-11-10T20:55:28.420Z,5.20
2018-11-10T20:57:37.457Z,8.40
2018-11-10T20:59:43.237Z,6.20
2018-11-10T21:01:49.115Z,6.83
2018-11-10T21:03:54.969Z,8.50
2018-11-10T21:06:00.478Z,9.23
2018-11-10T21:08:06.069Z,5.83
2018-11-10T21:10:12.284Z,7.87
2018-11-10T21:12:18.026Z,7.73
2018-11-10T21:14:23.900Z,7.03
2018-11-10T21:16:29.654Z,5.43
2018-11-10T21:18:35.220Z,5.00
2018-11-10T21:20:41.049Z,4.37
2018-11-10T21:22:47.214Z,6.60
2018-11-10T21:24:53.314Z,3.97
2018-11-10T21:26:59.089Z,4.07
2018-11-10T21:29:04.910Z,3.70
2018-11-10T21:31:11.162Z,6.83
2018-11-10T21:33:17.042Z,3.07
2018-11-10T21:35:23.483Z,5.13
2018-11-10T21:37:29.692Z,3.77
2018-11-10T21:39:35.582Z,5.50
2018-11-10T21:41:41.353Z,4.13
2018-11-10T21:43:47.310Z,6.13
2018-11-10T21:45:53.406Z,5.83
2018-11-10T21:47:58.870Z,3.33
2018-11-10T21:50:05.301Z,2.50
2018-11-10T21:52:11.142Z,3.63
2018-11-10T21:54:17.145Z,6.93
2018-11-10T21:56:23.123Z,6.17
2018-11-10T21:58:29.142Z,4.33
2018-11-10T22:00:34.717Z,2.57
2018-11-10T22:02:42.098Z,4.50
2018-11-10T22:04:48.020Z,5.20
2018-11-10T22:06:54.375Z,4.93
2018-11-10T22:08:59.813Z,2.73
2018-11-10T22:11:05.717Z,5.43
2018-11-10T22:13:11.437Z,3.03
2018-11-10T22:15:19.686Z,4.10
2018-11-10T22:17:25.906Z,9.53
2018-11-10T22:19:31.580Z,3.60
2018-11-10T22:21:37.434Z,4.40
2018-11-10T22:23:43.323Z,4.30
2018-11-10T22:25:49.542Z,6.40
2018-11-10T22:27:56.249Z,4.63
2018-11-10T22:30:02.256Z,5.20
2018-11-10T22:32:08.351Z,5.20
2018-11-10T22:34:14.504Z,5.57
2018-11-10T22:36:23.943Z,4.40
2018-11-10T22:38:29.852Z,6.00
2018-11-10T22:40:36.358Z,4.47
2018-11-10T22:42:43.373Z,4.23
2018-11-10T22:44:49.433Z,4.00
2018-11-10T22:46:55.456Z,3.87
2018-11-10T22:49:02.172Z,5.40
2018-11-10T22:51:08.642Z,3.27
2018-11-10T22:53:15.425Z,3.50
2018-11-10T22:55:21.525Z,5.00
2018-11-10T22:57:28.423Z,3.37
2018-11-10T22:59:34.838Z,5.23
2018-11-10T23:01:41.496Z,2.57
2018-11-10T23:03:47.606Z,4.23
2018-11-10T23:05:54.739Z,5.43
2018-11-10T23:08:02.539Z,5.80
2018-11-10T23:10:08.165Z,4.73
2018-11-10T23:12:14.898Z,6.77
2018-11-10T23:14:21.501Z,3.87
2018-11-10T23:16:27.923Z,2.90
2018-11-10T23:18:34.596Z,8.33
2018-11-10T23:20:40.625Z,3.37
2018-11-10T23:22:46.411Z,4.03
2018-11-10T23:24:52.299Z,2.93
2018-11-10T23:26:58.370Z,3.57
2018-11-10T23:29:04.262Z,4.50
2018-11-10T23:31:10.274Z,3.27
2018-11-10T23:33:17.260Z,3.80
2018-11-10T23:35:23.107Z,5.57
2018-11-10T23:37:29.301Z,5.17
2018-11-10T23:39:34.474Z,3.27
2018-11-10T23:41:40.524Z,5.87
2018-11-10T23:43:48.434Z,3.50
2018-11-10T23:45:54.619Z,3.83
2018-11-10T23:48:00.525Z,4.67
2018-11-10T23:50:06.384Z,4.10
2018-11-10T23:52:12.516Z,3.90
2018-11-10T23:54:18.063Z,4.10
2018-11-10T23:56:24.273Z,4.13
2018-11-10T23:58:31.038Z,3.63
